Weather at Antersberg Airfield

Public forecast

Using degrees Celsius for public forecast. Weather courtesy of forecast.io.

Closest aviation weather report (METAR) to Antersberg Airfield

Closest report is Munich Airport, 24.9 nm (46.2 km) NNW.

2024/06/16 22:20 (retrieved 25 minutes ago)

EDDM 162220Z AUTO 22003KT 190V250 CAVOK 15/12 Q1014 NOSIG

Closest aviation forecast (TAF) to Antersberg Airfield

Closest forecast is Munich Airport, 24.9 nm (46.2 km) NNW.

2024/06/16 18:30 (retrieved 4 hours ago)

TAF EDDM 161700Z 1618/1724 13005KT CAVOK BECMG 1619/1621 VRB03KT PROB30 TEMPO 1703/1706 SHRA BKN050TCU BECMG 1706/1708 19005KT BECMG 1718/1720 VRB03KT PROB40 TEMPO 1718/1721 SHRA BKN040CB